createdAt,value
2022-12-11T00:01:43.032Z,10.00
2022-12-11T00:04:14.447Z,9.94
2022-12-11T00:06:50.632Z,9.90
2022-12-11T00:09:23.937Z,9.77
2022-12-11T00:11:54.345Z,9.76
2022-12-11T00:14:21.487Z,9.69
2022-12-11T00:16:56.491Z,9.69
2022-12-11T00:19:27.502Z,9.69
2022-12-11T00:22:00.834Z,9.71
2022-12-11T00:24:33.287Z,9.63
2022-12-11T00:27:10.367Z,9.66
2022-12-11T00:29:41.418Z,9.67
2022-12-11T00:32:19.244Z,9.85
2022-12-11T00:34:49.983Z,9.75
2022-12-11T00:37:20.102Z,9.70
2022-12-11T00:39:50.287Z,9.78
2022-12-11T00:42:22.221Z,9.87
2022-12-11T00:44:49.927Z,9.79
2022-12-11T00:47:22.043Z,9.76
2022-12-11T00:49:50.117Z,9.73
2022-12-11T00:52:23.943Z,9.78
2022-12-11T00:54:52.697Z,9.76
2022-12-11T00:57:29.120Z,9.63
2022-12-11T01:00:02.465Z,9.70
2022-12-11T01:02:34.156Z,9.76
2022-12-11T01:05:01.636Z,9.62
2022-12-11T01:07:35.160Z,9.80
2022-12-11T01:10:06.466Z,9.67
2022-12-11T01:12:37.579Z,9.91
2022-12-11T01:15:08.402Z,9.75
2022-12-11T01:17:36.835Z,9.74
2022-12-11T01:20:05.679Z,9.75
2022-12-11T01:22:35.568Z,10.00
2022-12-11T01:25:09.286Z,9.84
2022-12-11T01:27:37.043Z,9.84
2022-12-11T01:30:06.891Z,9.82
2022-12-11T01:32:37.402Z,9.97
2022-12-11T01:35:06.782Z,9.83
2022-12-11T01:37:34.400Z,9.81
2022-12-11T01:40:06.366Z,9.84
2022-12-11T01:42:34.093Z,10.08
2022-12-11T01:45:20.330Z,9.90
2022-12-11T01:48:02.613Z,9.88
2022-12-11T01:50:39.811Z,9.93
2022-12-11T01:53:10.420Z,10.08
2022-12-11T01:55:39.941Z,10.00
2022-12-11T01:58:13.479Z,9.93
2022-12-11T02:00:43.425Z,10.07
2022-12-11T02:03:16.475Z,10.15
2022-12-11T02:05:43.849Z,10.04
2022-12-11T02:08:17.618Z,10.05
2022-12-11T02:11:10.353Z,10.14
2022-12-11T02:13:50.278Z,10.18
2022-12-11T02:16:38.666Z,10.12
2022-12-11T02:19:57.834Z,10.21
2022-12-11T02:22:54.001Z,10.40
2022-12-11T02:25:36.833Z,10.32
2022-12-11T02:28:17.447Z,10.33
2022-12-11T02:30:51.867Z,10.51
2022-12-11T02:33:31.000Z,10.61
2022-12-11T02:36:03.582Z,10.57
2022-12-11T02:38:41.339Z,10.52
2022-12-11T02:41:13.230Z,10.76
2022-12-11T02:43:44.584Z,10.72
2022-12-11T02:46:14.292Z,10.71
2022-12-11T02:48:44.890Z,10.67
2022-12-11T02:51:16.484Z,10.74
2022-12-11T02:53:57.394Z,10.75
2022-12-11T02:56:34.087Z,10.75
2022-12-11T02:59:08.645Z,10.83
2022-12-11T03:01:42.345Z,10.94
2022-12-11T03:04:10.042Z,10.87
2022-12-11T03:06:49.228Z,11.10
2022-12-11T03:09:22.644Z,10.99
2022-12-11T03:11:55.682Z,11.04
2022-12-11T03:14:26.666Z,11.06
2022-12-11T03:17:08.125Z,10.93
2022-12-11T03:19:42.319Z,10.95
2022-12-11T03:22:20.727Z,10.83
2022-12-11T03:25:02.100Z,10.79
2022-12-11T03:28:01.062Z,10.92
2022-12-11T03:30:33.857Z,10.79
2022-12-11T03:33:12.950Z,10.83
2022-12-11T03:35:54.461Z,10.89
2022-12-11T03:38:35.997Z,10.74
2022-12-11T03:41:12.457Z,10.77
2022-12-11T03:43:44.176Z,10.94
2022-12-11T03:46:16.452Z,10.84
2022-12-11T03:48:51.782Z,10.77
2022-12-11T03:51:26.765Z,10.68
2022-12-11T03:53:59.305Z,10.62
2022-12-11T03:56:29.975Z,10.62
2022-12-11T03:59:04.666Z,10.63
2022-12-11T04:01:32.272Z,10.53
2022-12-11T04:04:04.182Z,10.61
2022-12-11T04:06:37.091Z,10.55
2022-12-11T04:09:10.389Z,10.57
2022-12-11T04:11:40.594Z,10.54
2022-12-11T04:14:13.045Z,10.47
2022-12-11T04:16:40.164Z,10.46
2022-12-11T04:19:12.028Z,10.45
2022-12-11T04:21:41.944Z,10.46
2022-12-11T04:24:09.138Z,10.49
2022-12-11T04:26:36.283Z,10.45
2022-12-11T04:29:11.161Z,10.43
2022-12-11T04:31:39.540Z,10.41
2022-12-11T04:34:10.300Z,10.40
2022-12-11T04:36:40.566Z,10.42
2022-12-11T04:39:10.336Z,10.45
2022-12-11T04:41:42.994Z,10.43
2022-12-11T04:44:11.630Z,10.32
2022-12-11T04:46:39.243Z,10.26
2022-12-11T04:49:14.169Z,10.23
2022-12-11T04:51:48.569Z,10.14
2022-12-11T04:54:16.191Z,10.18
2022-12-11T04:56:44.066Z,10.13
2022-12-11T04:59:17.077Z,10.09
2022-12-11T05:01:44.232Z,10.15
2022-12-11T05:04:14.585Z,10.07
2022-12-11T05:06:42.502Z,10.25
2022-12-11T05:09:13.577Z,10.08
2022-12-11T05:11:43.941Z,10.13
2022-12-11T05:14:15.325Z,10.08
2022-12-11T05:16:42.388Z,10.06
2022-12-11T05:19:09.540Z,10.09
2022-12-11T05:21:39.233Z,10.11
2022-12-11T05:24:16.334Z,10.13
2022-12-11T05:26:49.835Z,10.07
2022-12-11T05:29:17.143Z,9.95
2022-12-11T05:31:44.304Z,9.97
2022-12-11T05:34:11.671Z,9.96
2022-12-11T05:36:44.365Z,12.34
2022-12-11T05:39:12.199Z,14.00
2022-12-11T05:41:47.598Z,13.63
2022-12-11T05:44:21.068Z,12.74
2022-12-11T05:46:51.933Z,12.75
2022-12-11T05:49:30.667Z,13.93
2022-12-11T05:52:03.869Z,13.25
2022-12-11T05:54:34.618Z,13.55
2022-12-11T05:57:05.642Z,13.74
2022-12-11T05:59:38.875Z,13.95
2022-12-11T06:02:07.749Z,13.51
2022-12-11T06:04:38.686Z,13.83
2022-12-11T06:07:15.330Z,14.00
2022-12-11T06:09:46.189Z,13.61
2022-12-11T06:12:20.982Z,13.59
2022-12-11T06:14:48.849Z,13.19
2022-12-11T06:17:24.062Z,12.40
2022-12-11T06:20:02.946Z,11.66
2022-12-11T06:22:35.460Z,11.21
2022-12-11T06:25:05.476Z,11.38
2022-12-11T06:27:33.496Z,11.09
2022-12-11T06:30:04.013Z,11.36
2022-12-11T06:32:31.532Z,11.13
2022-12-11T06:35:08.363Z,11.04
2022-12-11T06:37:41.760Z,11.01
2022-12-11T06:40:17.852Z,10.70
2022-12-11T06:42:51.771Z,10.64
2022-12-11T06:45:25.773Z,10.49
2022-12-11T06:47:55.409Z,10.61
2022-12-11T06:50:26.370Z,10.38
2022-12-11T06:52:58.212Z,10.37
2022-12-11T06:55:28.978Z,10.22
2022-12-11T06:58:00.648Z,10.08
2022-12-11T07:00:40.478Z,9.81
2022-12-11T07:03:10.693Z,9.88
2022-12-11T07:05:49.776Z,9.92
2022-12-11T07:08:23.618Z,9.92
2022-12-11T07:10:54.612Z,9.87
2022-12-11T07:13:28.302Z,10.49
2022-12-11T07:16:02.787Z,11.93
2022-12-11T07:18:38.185Z,12.04
2022-12-11T07:21:11.765Z,11.17
2022-12-11T07:23:42.369Z,10.85
2022-12-11T07:26:16.458Z,10.57
2022-12-11T07:28:47.265Z,10.54
2022-12-11T07:31:17.714Z,10.51
2022-12-11T07:33:45.779Z,10.41
2022-12-11T07:36:18.876Z,10.55
2022-12-11T07:38:57.402Z,10.45
2022-12-11T07:41:24.896Z,10.28
2022-12-11T07:43:59.926Z,10.18
2022-12-11T07:46:34.996Z,10.08
2022-12-11T07:49:09.627Z,10.08
2022-12-11T07:51:41.596Z,10.03
2022-12-11T07:54:21.296Z,10.05
2022-12-11T07:56:53.903Z,10.09
2022-12-11T07:59:24.868Z,10.08
2022-12-11T08:01:52.390Z,10.05
2022-12-11T08:04:22.599Z,10.00
2022-12-11T08:06:58.278Z,9.86
2022-12-11T08:09:33.406Z,9.88
2022-12-11T08:12:04.591Z,9.91
2022-12-11T08:14:41.703Z,9.98
2022-12-11T08:17:11.335Z,9.90
2022-12-11T08:19:45.682Z,9.82
2022-12-11T08:22:21.032Z,9.84
2022-12-11T08:24:48.766Z,9.86
2022-12-11T08:27:21.180Z,9.59
2022-12-11T08:29:51.502Z,9.66
2022-12-11T08:32:21.751Z,9.59
2022-12-11T08:34:51.965Z,9.43
2022-12-11T08:37:22.185Z,9.51
2022-12-11T08:39:49.512Z,9.62
2022-12-11T08:42:22.491Z,9.64
2022-12-11T08:44:52.284Z,9.94
2022-12-11T08:47:24.650Z,10.24
2022-12-11T08:49:55.270Z,10.48
2022-12-11T08:52:34.692Z,11.95
2022-12-11T08:55:02.773Z,12.26
2022-12-11T08:57:33.114Z,12.05
2022-12-11T09:00:07.205Z,11.91
2022-12-11T09:02:40.665Z,11.82
2022-12-11T09:05:12.276Z,12.98
2022-12-11T09:07:45.606Z,13.50
2022-12-11T09:10:16.848Z,13.39
2022-12-11T09:12:44.371Z,11.93
2022-12-11T09:15:14.553Z,11.51
2022-12-11T09:17:42.188Z,11.15
2022-12-11T09:20:10.139Z,11.12
2022-12-11T09:22:39.864Z,10.76
2022-12-11T09:25:13.752Z,10.80
2022-12-11T09:27:46.552Z,10.73
2022-12-11T09:30:20.548Z,10.37
2022-12-11T09:32:50.771Z,10.12
2022-12-11T09:35:24.364Z,11.37
2022-12-11T09:37:59.354Z,12.07
2022-12-11T09:40:31.909Z,11.05
2022-12-11T09:43:30.112Z,10.54
2022-12-11T09:46:04.189Z,10.53
2022-12-11T09:48:38.220Z,10.48
2022-12-11T09:51:36.607Z,10.28
2022-12-11T09:54:10.157Z,10.13
2022-12-11T09:56:51.271Z,10.17
2022-12-11T09:59:49.315Z,10.03
2022-12-11T10:02:44.158Z,9.91
2022-12-11T10:05:30.402Z,10.01
2022-12-11T10:08:16.328Z,9.88
2022-12-11T10:10:52.706Z,9.43
2022-12-11T10:13:54.770Z,9.47
2022-12-11T10:16:49.005Z,9.57
2022-12-11T10:19:29.201Z,9.46
2022-12-11T10:22:05.041Z,9.33
2022-12-11T10:25:13.826Z,9.52
2022-12-11T10:27:54.178Z,9.25
2022-12-11T10:30:34.451Z,9.12
2022-12-11T10:33:11.451Z,9.07
2022-12-11T10:36:00.261Z,9.45
2022-12-11T10:38:33.819Z,9.29
2022-12-11T10:41:11.493Z,9.46
2022-12-11T10:43:47.663Z,9.25
2022-12-11T10:46:24.729Z,9.53
2022-12-11T10:49:00.470Z,9.65
2022-12-11T10:51:30.800Z,9.42
2022-12-11T10:54:07.282Z,9.57
2022-12-11T10:56:37.841Z,9.67
2022-12-11T10:59:06.707Z,9.47
2022-12-11T11:01:39.277Z,9.66
2022-12-11T11:04:40.553Z,9.42
2022-12-11T11:07:20.496Z,9.27
2022-12-11T11:09:48.122Z,8.79
2022-12-11T11:12:27.372Z,8.88
2022-12-11T11:15:05.662Z,8.85
2022-12-11T11:17:49.772Z,8.86
2022-12-11T11:20:29.301Z,8.67
2022-12-11T11:23:03.422Z,8.38
2022-12-11T11:25:37.180Z,8.80
2022-12-11T11:28:22.127Z,8.72
2022-12-11T11:31:08.687Z,8.70
2022-12-11T11:33:56.429Z,8.60
2022-12-11T11:36:29.426Z,8.61
2022-12-11T11:39:25.484Z,8.23
2022-12-11T11:42:03.194Z,8.28
2022-12-11T11:44:45.034Z,8.21
2022-12-11T11:47:27.536Z,8.02
2022-12-11T11:50:10.822Z,8.17
2022-12-11T11:52:48.657Z,7.98
2022-12-11T11:55:32.886Z,8.15
2022-12-11T11:58:16.232Z,8.20
2022-12-11T12:00:47.410Z,8.06
2022-12-11T12:03:23.594Z,7.48
2022-12-11T12:06:05.050Z,7.76
2022-12-11T12:08:51.054Z,8.01
2022-12-11T12:11:34.595Z,7.81
2022-12-11T12:14:51.086Z,7.76
2022-12-11T12:17:17.681Z,7.83
2022-12-11T12:20:14.899Z,7.60
2022-12-11T12:23:08.536Z,7.80
2022-12-11T12:25:51.462Z,8.26
2022-12-11T12:28:45.374Z,8.15
2022-12-11T12:31:41.267Z,7.96
2022-12-11T12:34:29.313Z,8.06
2022-12-11T12:37:23.382Z,8.13
2022-12-11T12:40:13.664Z,8.00
2022-12-11T12:43:04.083Z,7.95
2022-12-11T12:45:43.865Z,8.14
2022-12-11T12:48:14.466Z,8.01
2022-12-11T12:50:50.613Z,7.93
2022-12-11T12:53:27.751Z,7.80
2022-12-11T12:56:01.752Z,7.75
2022-12-11T12:58:35.114Z,7.61
2022-12-11T13:01:20.487Z,7.66
2022-12-11T13:03:54.721Z,7.68
2022-12-11T13:06:55.224Z,7.65
2022-12-11T13:09:28.976Z,7.62
2022-12-11T13:12:11.595Z,7.79
2022-12-11T13:14:56.046Z,7.79
2022-12-11T13:17:37.161Z,7.70
2022-12-11T13:20:19.902Z,7.46
2022-12-11T13:23:06.170Z,7.33
2022-12-11T13:25:50.435Z,7.67
2022-12-11T13:28:30.596Z,10.22
2022-12-11T13:31:16.347Z,10.92
2022-12-11T13:33:53.224Z,11.13
2022-12-11T13:36:27.565Z,11.26
2022-12-11T13:39:00.712Z,11.87
2022-12-11T13:41:32.733Z,11.01
2022-12-11T13:44:04.651Z,9.34
2022-12-11T13:46:39.372Z,8.43
2022-12-11T13:49:22.165Z,8.08
2022-12-11T13:51:58.984Z,7.55
2022-12-11T13:54:33.916Z,7.30
2022-12-11T13:57:21.552Z,7.31
2022-12-11T14:02:49.347Z,7.03
2022-12-11T14:05:22.596Z,6.90
2022-12-11T14:07:59.444Z,7.22
2022-12-11T14:10:35.803Z,7.22
2022-12-11T14:13:39.860Z,7.03
2022-12-11T14:16:21.896Z,7.18
2022-12-11T14:18:54.345Z,7.29
2022-12-11T14:21:30.928Z,6.85
2022-12-11T14:24:04.404Z,7.33
2022-12-11T14:26:38.682Z,7.22
2022-12-11T14:29:36.608Z,8.24
2022-12-11T14:32:21.565Z,9.11
2022-12-11T14:34:53.500Z,7.92
2022-12-11T14:37:25.548Z,7.74
2022-12-11T14:40:02.797Z,7.50
2022-12-11T14:42:45.900Z,7.13
2022-12-11T14:45:36.467Z,7.11
2022-12-11T14:48:13.339Z,7.02
2022-12-11T14:50:50.187Z,6.96
2022-12-11T14:53:28.039Z,7.00
2022-12-11T14:56:00.073Z,7.00
2022-12-11T14:58:27.959Z,6.89
2022-12-11T15:00:58.466Z,6.86
2022-12-11T15:03:38.533Z,7.02
2022-12-11T15:06:23.225Z,6.97
2022-12-11T15:08:54.175Z,7.04
2022-12-11T15:11:31.731Z,6.66
2022-12-11T15:14:04.029Z,6.58
2022-12-11T15:16:44.375Z,6.68
2022-12-11T15:19:31.475Z,6.52
2022-12-11T15:22:18.011Z,6.58
2022-12-11T15:24:52.056Z,6.43
2022-12-11T15:27:42.210Z,6.63
2022-12-11T15:30:29.034Z,6.47
2022-12-11T15:33:11.594Z,6.54
2022-12-11T15:35:58.308Z,6.40
2022-12-11T15:38:35.936Z,6.65
2022-12-11T15:41:08.054Z,6.29
2022-12-11T15:43:43.794Z,6.11
2022-12-11T15:46:17.729Z,6.13
2022-12-11T15:48:50.234Z,6.19
2022-12-11T15:51:28.135Z,6.13
2022-12-11T15:54:01.801Z,6.15
2022-12-11T15:56:30.522Z,6.15
2022-12-11T15:59:06.240Z,6.41
2022-12-11T16:01:35.220Z,6.13
2022-12-11T16:04:11.652Z,6.01
2022-12-11T16:06:39.184Z,6.14
2022-12-11T16:09:09.502Z,6.33
2022-12-11T16:11:43.572Z,6.02
2022-12-11T16:14:17.095Z,5.92
2022-12-11T16:19:46.896Z,5.93
2022-12-11T16:22:22.988Z,6.01
2022-12-11T16:24:57.113Z,5.52
2022-12-11T16:27:25.018Z,5.71
2022-12-11T16:29:55.805Z,5.73
2022-12-11T16:32:30.037Z,5.57
2022-12-11T16:34:58.799Z,5.53
2022-12-11T16:37:26.543Z,5.66
2022-12-11T16:39:57.884Z,5.64
2022-12-11T16:42:31.593Z,5.66
2022-12-11T16:45:17.873Z,5.66
2022-12-11T16:47:45.577Z,5.71
2022-12-11T16:50:14.109Z,5.53
2022-12-11T16:52:55.627Z,5.47
2022-12-11T16:55:31.569Z,5.42
2022-12-11T16:58:05.142Z,5.76
2022-12-11T17:00:39.360Z,5.47
2022-12-11T17:03:19.715Z,5.51
2022-12-11T17:05:53.909Z,5.44
2022-12-11T17:08:28.690Z,5.51
2022-12-11T17:13:51.604Z,5.28
2022-12-11T17:16:22.565Z,5.19
2022-12-11T17:18:53.497Z,5.63
2022-12-11T17:21:28.776Z,5.24
2022-12-11T17:24:01.871Z,4.97
2022-12-11T17:26:37.232Z,5.01
2022-12-11T17:29:08.541Z,5.35
2022-12-11T17:31:41.721Z,5.60
2022-12-11T17:37:15.595Z,6.56
2022-12-11T17:39:49.403Z,7.55
2022-12-11T17:42:21.950Z,6.41
2022-12-11T17:45:00.692Z,6.21
2022-12-11T17:47:34.961Z,6.14
2022-12-11T17:50:02.824Z,5.78
2022-12-11T17:52:37.319Z,5.44
2022-12-11T17:55:17.564Z,5.40
2022-12-11T17:57:52.732Z,5.77
2022-12-11T18:00:33.209Z,5.53
2022-12-11T18:03:06.249Z,5.33
2022-12-11T18:05:42.299Z,5.13
2022-12-11T18:08:21.702Z,5.37
2022-12-11T18:10:55.835Z,5.28
2022-12-11T18:13:25.925Z,5.13
2022-12-11T18:16:18.387Z,5.17
2022-12-11T18:18:49.544Z,5.61
2022-12-11T18:21:29.669Z,5.48
2022-12-11T18:24:05.475Z,5.18
2022-12-11T18:26:39.842Z,5.26
2022-12-11T18:29:12.534Z,5.42
2022-12-11T18:31:50.395Z,5.25
2022-12-11T18:34:25.603Z,4.87
2022-12-11T18:36:57.135Z,5.19
2022-12-11T18:39:30.776Z,4.94
2022-12-11T18:42:32.448Z,4.90
2022-12-11T18:45:09.308Z,4.88
2022-12-11T18:47:49.099Z,5.10
2022-12-11T18:50:23.299Z,5.03
2022-12-11T18:53:05.507Z,4.75
2022-12-11T18:55:49.605Z,4.66
2022-12-11T18:58:23.386Z,4.98
2022-12-11T19:00:53.312Z,4.69
2022-12-11T19:03:24.358Z,4.63
2022-12-11T19:06:05.263Z,4.49
2022-12-11T19:08:35.873Z,5.09
2022-12-11T19:11:06.680Z,4.88
2022-12-11T19:13:42.185Z,4.52
2022-12-11T19:16:29.651Z,4.70
2022-12-11T19:19:05.547Z,4.74
2022-12-11T19:21:36.112Z,4.61
2022-12-11T19:24:08.028Z,4.72
2022-12-11T19:26:35.913Z,4.69
2022-12-11T19:29:08.571Z,4.92
2022-12-11T19:31:39.221Z,4.52
2022-12-11T19:34:12.475Z,4.56
2022-12-11T19:36:42.517Z,4.67
2022-12-11T19:39:13.202Z,4.93
2022-12-11T19:41:53.691Z,4.80
2022-12-11T19:44:30.490Z,4.75
2022-12-11T19:46:57.935Z,4.68
2022-12-11T19:49:28.514Z,4.64
2022-12-11T19:51:59.176Z,4.59
2022-12-11T19:54:43.794Z,4.43
2022-12-11T19:57:14.254Z,4.56
2022-12-11T19:59:56.829Z,4.55
2022-12-11T20:02:30.786Z,4.30
2022-12-11T20:05:10.434Z,4.31
2022-12-11T20:07:47.204Z,4.62
2022-12-11T20:10:20.718Z,4.67
2022-12-11T20:12:54.434Z,4.51
2022-12-11T20:15:26.166Z,4.52
2022-12-11T20:17:58.123Z,4.66
2022-12-11T20:20:32.780Z,4.78
2022-12-11T20:23:03.824Z,4.61
2022-12-11T20:25:34.275Z,4.61
2022-12-11T20:28:05.143Z,4.47
2022-12-11T20:30:39.270Z,4.60
2022-12-11T20:33:12.693Z,4.48
2022-12-11T20:35:44.633Z,4.23
2022-12-11T20:38:12.296Z,4.37
2022-12-11T20:40:45.410Z,4.37
2022-12-11T20:43:16.120Z,4.33
2022-12-11T20:45:52.169Z,4.26
2022-12-11T20:48:22.838Z,4.46
2022-12-11T20:50:53.052Z,4.27
2022-12-11T20:53:29.670Z,4.41
2022-12-11T20:56:00.907Z,4.26
2022-12-11T20:58:35.117Z,4.38
2022-12-11T21:01:12.780Z,4.27
2022-12-11T21:03:44.161Z,4.34
2022-12-11T21:06:34.191Z,4.09
2022-12-11T21:09:16.379Z,4.23
2022-12-11T21:11:46.580Z,4.30
2022-12-11T21:14:15.561Z,4.12
2022-12-11T21:16:43.796Z,4.05
2022-12-11T21:19:17.336Z,4.27
2022-12-11T21:21:47.128Z,4.19
2022-12-11T21:24:19.962Z,4.09
2022-12-11T21:26:50.954Z,4.16
2022-12-11T21:29:21.712Z,4.19
2022-12-11T21:31:53.863Z,4.15
2022-12-11T21:34:25.746Z,4.03
2022-12-11T21:36:57.465Z,4.05
2022-12-11T21:39:29.539Z,4.07
2022-12-11T21:42:01.827Z,3.91
2022-12-11T21:47:32.561Z,4.07
2022-12-11T21:50:05.396Z,4.25
2022-12-11T21:52:34.044Z,4.21
2022-12-11T21:55:11.829Z,4.24
2022-12-11T21:57:43.502Z,4.34
2022-12-11T22:00:14.715Z,4.22
2022-12-11T22:02:43.262Z,4.26
2022-12-11T22:05:10.959Z,4.34
2022-12-11T22:07:47.770Z,4.17
2022-12-11T22:10:19.061Z,4.43
2022-12-11T22:12:52.837Z,4.65
2022-12-11T22:15:23.567Z,4.38
2022-12-11T22:17:56.853Z,4.35
2022-12-11T22:20:27.775Z,4.51
2022-12-11T22:23:00.304Z,4.54
2022-12-11T22:25:37.661Z,4.67
2022-12-11T22:28:11.747Z,4.62
2022-12-11T22:30:46.271Z,4.72
2022-12-11T22:33:17.379Z,4.15
2022-12-11T22:35:57.256Z,4.21
2022-12-11T22:38:26.305Z,4.34
2022-12-11T22:40:57.388Z,4.29
2022-12-11T22:43:31.244Z,4.35
2022-12-11T22:46:01.566Z,4.25
2022-12-11T22:48:32.550Z,4.43
2022-12-11T22:51:06.876Z,4.52
2022-12-11T22:53:35.284Z,4.17
2022-12-11T22:56:05.897Z,4.11
2022-12-11T22:58:39.216Z,4.37
2022-12-11T23:01:16.226Z,4.43
2022-12-11T23:03:48.337Z,4.37
2022-12-11T23:06:23.952Z,4.26
2022-12-11T23:08:53.571Z,4.34
2022-12-11T23:11:33.017Z,4.49
2022-12-11T23:14:06.846Z,4.32
2022-12-11T23:16:39.455Z,4.24
2022-12-11T23:19:06.971Z,4.52
2022-12-11T23:21:39.192Z,4.51
2022-12-11T23:24:10.809Z,4.50
2022-12-11T23:26:44.982Z,4.39
2022-12-11T23:29:18.244Z,4.53
2022-12-11T23:31:48.848Z,4.53
2022-12-11T23:34:20.177Z,4.38
2022-12-11T23:36:50.595Z,4.56
2022-12-11T23:39:22.870Z,4.50
2022-12-11T23:41:53.906Z,4.38
2022-12-11T23:44:24.558Z,4.44
2022-12-11T23:46:57.726Z,4.30
2022-12-11T23:49:28.419Z,4.40
2022-12-11T23:52:01.868Z,4.43
2022-12-11T23:54:32.118Z,4.34
2022-12-11T23:57:02.913Z,4.31
2022-12-11T23:59:34.092Z,4.49
